Time;durP1;ratioP1;P1;durP2;ratioP2;P2;SDS_P1;SDS_P2;PMS_P1;PMS_P2;Temp;Humidity;BMP_temperature;BMP_pressure;BME280_temperature;BME280_humidity;BME280_pressure;Samples;Min_cycle;Max_cycle;Signal;HPM_P1;HPM_P2
2023/05/03 00:03:38;;;;;;;0.28;0.20;;;;;;;4.19;78.99;100293.00;10619375;27;20039;-76
2023/05/03 00:08:41;;;;;;;0.43;0.30;;;;;;;4.03;78.62;100310.09;10635150;27;20042;-75
2023/05/03 00:13:43;;;;;;;0.52;0.50;;;;;;;3.96;79.10;100298.56;10656746;27;20031;-75
2023/05/03 00:18:45;;;;;;;0.57;0.38;;;;;;;4.02;79.49;100311.19;10656097;27;20598;-75
2023/05/03 00:23:48;;;;;;;0.98;0.50;;;;;;;4.01;79.81;100314.97;10638044;27;20042;-75
2023/05/03 00:28:51;;;;;;;1.95;0.57;;;;;;;3.97;79.64;100317.31;10638425;27;20567;-75
2023/05/03 00:33:53;;;;;;;1.30;0.60;;;;;;;4.03;80.10;100316.34;10638250;27;20039;-74
2023/05/03 00:39:01;;;;;;;1.38;0.63;;;;;;;4.06;80.54;100312.31;10612339;27;20403;-75
2023/05/03 00:44:03;;;;;;;1.40;0.57;;;;;;;4.00;80.70;100322.28;10635492;27;20065;-75
2023/05/03 00:49:05;;;;;;;0.63;0.40;;;;;;;4.15;80.64;100332.56;10651567;27;20047;-75
2023/05/03 00:54:12;;;;;;;0.90;0.45;;;;;;;4.08;80.69;100345.47;10627444;27;20047;-75
2023/05/03 00:59:15;;;;;;;1.00;0.50;;;;;;;4.05;80.93;100351.41;10634847;27;20065;-75
2023/05/03 01:04:20;;;;;;;1.92;0.60;;;;;;;4.03;81.06;100346.22;10635433;27;20043;-75
2023/05/03 01:09:42;;;;;;;1.73;0.60;;;;;;;4.06;80.86;100343.00;10651695;27;20497;-76
2023/05/03 01:15:07;;;;;;;1.73;0.60;;;;;;;4.06;80.45;100362.00;10603924;27;20039;-75
2023/05/03 01:20:12;;;;;;;2.03;0.70;;;;;;;4.16;80.70;100364.06;10619448;27;20042;-75
2023/05/03 01:25:15;;;;;;;0.70;0.50;;;;;;;4.12;80.49;100376.50;10607179;27;20050;-74
2023/05/03 01:30:19;;;;;;;1.23;0.80;;;;;;;4.05;80.61;100378.56;10638109;27;20047;-75
2023/05/03 01:35:28;;;;;;;2.15;0.65;;;;;;;4.14;80.31;100391.47;10623189;27;20063;-75
2023/05/03 01:40:32;;;;;;;0.98;0.50;;;;;;;4.09;80.02;100390.56;10635963;27;20051;-76
2023/05/03 01:45:35;;;;;;;0.40;0.40;;;;;;;4.10;80.47;100397.66;10650154;27;20039;-74
2023/05/03 01:50:37;;;;;;;0.95;0.60;;;;;;;4.11;80.33;100418.28;10617783;27;20039;-75
2023/05/03 01:55:40;;;;;;;0.60;0.60;;;;;;;4.08;80.24;100410.63;10637694;27;20049;-75
2023/05/03 02:00:44;;;;;;;1.17;0.70;;;;;;;4.13;79.92;100427.00;10637703;27;20050;-75
2023/05/03 02:05:47;;;;;;;0.38;0.38;;;;;;;4.07;80.28;100426.09;10617384;27;20039;-75
2023/05/03 02:10:49;;;;;;;0.43;0.43;;;;;;;4.13;80.12;100446.03;10598336;27;20416;-75
2023/05/03 02:15:51;;;;;;;1.27;0.50;;;;;;;4.16;79.64;100438.22;10612178;27;20050;-75
2023/05/03 02:20:54;;;;;;;0.98;0.52;;;;;;;4.23;79.34;100451.66;10634881;27;20050;-75
2023/05/03 02:25:57;;;;;;;1.80;0.70;;;;;;;4.21;79.07;100459.22;10610048;27;20039;-75
2023/05/03 02:30:59;;;;;;;0.40;0.40;;;;;;;4.20;78.64;100477.41;10622100;27;20048;-75
2023/05/03 02:36:01;;;;;;;1.75;0.80;;;;;;;4.18;78.08;100478.72;10601398;27;20070;-75
2023/05/03 02:41:04;;;;;;;0.95;0.60;;;;;;;4.26;78.73;100491.91;10642096;27;20057;-75
2023/05/03 02:46:06;;;;;;;0.50;0.50;;;;;;;4.24;78.16;100488.59;10651698;27;20054;-75
2023/05/03 02:51:09;;;;;;;0.90;0.60;;;;;;;4.27;77.54;100507.13;10611601;27;20043;-76
2023/05/03 02:56:11;;;;;;;0.95;0.70;;;;;;;4.32;76.99;100507.22;10633497;27;20039;-75
2023/05/03 03:01:14;;;;;;;0.82;0.60;;;;;;;4.17;77.02;100515.09;10653193;27;20046;-75
2023/05/03 03:06:17;;;;;;;0.57;0.40;;;;;;;4.20;76.96;100515.44;10634335;27;20454;-74
2023/05/03 03:11:25;;;;;;;0.90;0.73;;;;;;;4.30;75.84;100538.41;10614265;27;20058;-74
2023/05/03 03:16:28;;;;;;;0.25;0.20;;;;;;;4.42;75.07;100552.78;10618411;27;20054;-74
2023/05/03 03:21:31;;;;;;;0.73;0.57;;;;;;;4.28;75.09;100560.38;10618141;27;20416;-74
2023/05/03 03:26:34;;;;;;;0.82;0.45;;;;;;;4.33;74.86;100556.94;10654057;27;20066;-74
2023/05/03 03:31:37;;;;;;;0.77;0.55;;;;;;;4.40;74.82;100584.81;10604245;27;20035;-74
2023/05/03 03:36:39;;;;;;;1.13;0.70;;;;;;;4.32;74.47;100580.56;10609038;27;20516;-75
2023/05/03 03:41:43;;;;;;;0.65;0.65;;;;;;;4.28;74.17;100592.97;10608919;28;20047;-75
2023/05/03 03:46:46;;;;;;;0.40;0.40;;;;;;;4.30;73.82;100603.59;10574620;28;20075;-75
2023/05/03 03:51:49;;;;;;;3.80;0.57;;;;;;;4.30;74.22;100609.03;10606906;28;20323;-76
2023/05/03 03:56:52;;;;;;;2.00;0.47;;;;;;;4.35;74.41;100620.84;10613283;28;20039;-75
2023/05/03 04:01:55;;;;;;;1.13;0.50;;;;;;;4.46;74.33;100619.16;10627021;28;20042;-75
2023/05/03 04:06:57;;;;;;;0.70;0.70;;;;;;;4.47;73.56;100643.34;10591431;28;20047;-75
2023/05/03 04:12:02;;;;;;;0.75;0.60;;;;;;;4.53;73.44;100650.56;10588419;28;20039;-75
2023/05/03 04:17:05;;;;;;;1.23;0.60;;;;;;;5.11;72.14;100646.75;10591813;28;20524;-74
2023/05/03 04:22:08;;;;;;;2.45;0.70;;;;;;;5.28;70.96;100665.81;10619199;28;21834;-74
2023/05/03 04:27:37;;;;;;;1.90;1.08;;;;;;;5.79;70.00;100665.84;10623482;28;20539;-75
2023/05/03 04:32:41;;;;;;;3.63;0.90;;;;;;;6.21;68.18;100672.47;10580075;28;20072;-75
2023/05/03 04:37:46;;;;;;;6.88;1.80;;;;;;;6.41;67.69;100684.72;10618220;28;20405;-74
2023/05/03 04:42:52;;;;;;;3.22;0.90;;;;;;;7.38;64.34;100683.91;10608514;28;20054;-75
2023/05/03 04:47:55;;;;;;;1.58;1.10;;;;;;;8.18;61.96;100687.56;10621909;27;20031;-75
2023/05/03 04:52:57;;;;;;;1.67;0.90;;;;;;;8.67;59.97;100694.38;10636134;27;20440;-76
2023/05/03 04:58:01;;;;;;;1.10;0.82;;;;;;;8.65;58.89;100703.94;10622405;27;20047;-75
2023/05/03 05:03:05;;;;;;;0.93;0.60;;;;;;;8.58;58.92;100700.66;10629411;27;20047;-75
2023/05/03 05:08:07;;;;;;;1.83;0.77;;;;;;;8.82;58.05;100709.22;10626563;27;20035;-74
2023/05/03 05:13:15;;;;;;;0.60;0.60;;;;;;;9.33;56.76;100716.47;10612012;27;20035;-75
2023/05/03 05:18:18;;;;;;;2.28;0.68;;;;;;;9.39;56.52;100719.25;10608680;27;20411;-73
2023/05/03 05:23:21;;;;;;;1.58;0.90;;;;;;;9.61;55.74;100726.13;10615408;27;20054;-74
2023/05/03 05:28:24;;;;;;;3.80;1.50;;;;;;;10.25;54.01;100722.03;10611121;27;20592;-74
2023/05/03 05:33:26;;;;;;;2.53;1.48;;;;;;;10.24;54.86;100723.97;10559867;27;20062;-76
2023/05/03 05:38:29;;;;;;;2.70;0.82;;;;;;;9.94;54.78;100733.00;10605900;27;20062;-75
2023/05/03 05:43:34;;;;;;;1.55;0.50;;;;;;;9.72;53.88;100739.81;10596158;27;20043;-74
2023/05/03 05:48:38;;;;;;;3.85;1.10;;;;;;;10.08;53.94;100749.72;10619090;27;20460;-75
2023/05/03 05:53:40;;;;;;;4.38;1.10;;;;;;;10.52;52.77;100749.94;10605883;27;20409;-76
2023/05/03 05:58:49;;;;;;;3.50;1.00;;;;;;;11.22;51.07;100754.63;10588853;27;20044;-75
2023/05/03 06:03:51;;;;;;;3.58;0.80;;;;;;;11.34;50.13;100755.94;10586047;27;20059;-75
2023/05/03 06:08:55;;;;;;;0.60;0.40;;;;;;;11.37;49.96;100755.38;10588905;27;20042;-75
2023/05/03 06:13:57;;;;;;;2.10;0.70;;;;;;;11.40;49.89;100757.53;10581999;27;20051;-75
2023/05/03 06:19:00;;;;;;;2.33;1.00;;;;;;;11.84;49.27;100764.16;10571470;27;20051;-75
2023/05/03 06:24:03;;;;;;;1.38;0.70;;;;;;;11.46;49.02;100769.34;10599901;27;20832;-76
2023/05/03 06:29:05;;;;;;;1.13;0.65;;;;;;;11.84;48.86;100770.50;10605002;28;20056;-76
2023/05/03 06:34:14;;;;;;;1.48;0.70;;;;;;;12.27;47.32;100785.25;10603853;28;20043;-74
2023/05/03 06:39:17;;;;;;;1.23;0.70;;;;;;;12.03;47.61;100795.38;10590293;28;20039;-75
2023/05/03 06:44:21;;;;;;;3.90;0.80;;;;;;;11.90;46.63;100796.81;10595555;28;20039;-75
2023/05/03 06:49:23;;;;;;;1.85;0.85;;;;;;;11.92;46.54;100805.59;10611805;28;20405;-76
2023/05/03 06:54:25;;;;;;;2.83;0.95;;;;;;;12.29;47.29;100801.47;10610631;28;20085;-75
2023/05/03 06:59:27;;;;;;;2.75;1.10;;;;;;;13.46;44.66;100808.47;10582250;28;20036;-76
2023/05/03 07:04:30;;;;;;;4.00;1.38;;;;;;;13.45;43.55;100820.63;10604013;28;20031;-75
2023/05/03 07:09:32;;;;;;;3.15;0.80;;;;;;;13.35;43.82;100827.06;10591021;28;20036;-75
2023/05/03 07:14:35;;;;;;;1.25;0.75;;;;;;;13.24;43.93;100831.09;10597858;28;20570;-75
2023/05/03 07:19:37;;;;;;;2.15;1.02;;;;;;;13.66;43.08;100832.19;10601674;28;20043;-74
2023/05/03 07:24:40;;;;;;;1.08;0.80;;;;;;;13.62;42.82;100828.38;10610881;28;20047;-75
2023/05/03 07:29:42;;;;;;;2.70;0.90;;;;;;;13.94;42.59;100833.16;10592037;28;20042;-75
2023/05/03 07:34:45;;;;;;;3.05;0.90;;;;;;;13.87;42.24;100845.38;10610302;28;20047;-75
2023/05/03 07:39:48;;;;;;;2.22;0.90;;;;;;;13.78;43.16;100849.94;10593462;28;20071;-74
2023/05/03 07:44:51;;;;;;;1.55;0.77;;;;;;;14.10;42.22;100859.41;10607181;28;20035;-75
2023/05/03 07:49:53;;;;;;;2.25;1.00;;;;;;;14.36;41.61;100865.34;10591682;28;20043;-75
2023/05/03 07:54:55;;;;;;;0.93;0.80;;;;;;;14.18;42.00;100878.84;10610314;28;20047;-75
2023/05/03 07:59:58;;;;;;;1.00;0.57;;;;;;;13.84;42.03;100883.78;10609151;28;20402;-74
2023/05/03 08:05:00;;;;;;;2.10;0.60;;;;;;;14.00;41.55;100887.97;10609034;28;20054;-75
2023/05/03 08:10:03;;;;;;;2.03;0.50;;;;;;;14.66;41.63;100886.97;10574382;28;20047;-74
2023/05/03 08:15:06;;;;;;;1.85;0.63;;;;;;;13.76;41.63;100909.28;10574583;28;20035;-75
2023/05/03 08:20:09;;;;;;;0.60;0.60;;;;;;;13.43;42.37;100898.09;10610882;28;20039;-78
2023/05/03 08:25:11;;;;;;;0.50;0.40;;;;;;;13.67;42.50;100908.28;10606849;27;20047;-75
2023/05/03 08:30:14;;;;;;;1.45;0.80;;;;;;;13.68;42.77;100918.19;10619010;27;20152;-75
2023/05/03 08:35:16;;;;;;;2.00;0.82;;;;;;;13.52;43.66;100912.03;10660594;27;20054;-75
2023/05/03 08:40:22;;;;;;;0.70;0.43;;;;;;;13.69;42.35;100919.84;10640081;27;20039;-76
2023/05/03 08:45:25;;;;;;;0.93;0.60;;;;;;;13.63;42.47;100924.59;10659338;27;20035;-75
2023/05/03 08:50:28;;;;;;;1.52;0.80;;;;;;;13.20;42.71;100940.25;10631260;27;20043;-75
2023/05/03 08:55:30;;;;;;;2.78;0.70;;;;;;;12.83;43.86;100947.16;10611393;28;20055;-76
2023/05/03 09:00:32;;;;;;;2.17;0.73;;;;;;;12.88;43.11;100946.31;10629020;27;20054;-75
2023/05/03 09:05:37;;;;;;;1.42;0.90;;;;;;;12.85;44.64;100950.47;10638639;27;20047;-77
2023/05/03 09:10:41;;;;;;;2.47;0.70;;;;;;;12.88;44.47;100960.09;10621381;27;20043;-76
2023/05/03 09:15:51;;;;;;;1.73;0.80;;;;;;;12.98;43.77;100971.81;10657322;27;20039;-76
2023/05/03 09:20:54;;;;;;;3.88;0.50;;;;;;;12.36;43.99;100962.41;10653321;27;20528;-76
2023/05/03 09:25:57;;;;;;;1.33;1.08;;;;;;;11.05;47.52;100986.47;10632945;27;20042;-75
2023/05/03 09:31:05;;;;;;;2.17;0.75;;;;;;;10.27;48.28;101002.31;10621319;27;20038;-75
2023/05/03 09:36:07;;;;;;;4.93;0.82;;;;;;;10.00;49.56;100998.91;10656588;27;20039;-76
2023/05/03 09:41:10;;;;;;;1.48;0.70;;;;;;;10.16;49.60;100997.88;10614815;27;20059;-74
2023/05/03 09:46:12;;;;;;;3.03;0.93;;;;;;;10.17;49.74;101010.47;10629526;27;20411;-74
2023/05/03 09:51:15;;;;;;;1.25;0.73;;;;;;;9.96;49.15;101010.41;10619092;27;20412;-74
2023/05/03 09:56:19;;;;;;;6.60;0.93;;;;;;;10.03;49.06;101029.34;10615080;27;20038;-75
2023/05/03 10:01:23;;;;;;;1.25;0.70;;;;;;;10.43;48.31;101020.47;10637193;27;20692;-74
2023/05/03 10:06:40;;;;;;;1.02;0.50;;;;;;;10.54;47.30;101032.28;10637300;27;20043;-74
2023/05/03 10:11:52;;;;;;;5.10;1.05;;;;;;;10.43;47.98;101036.13;10617489;27;20043;-76
2023/05/03 10:17:03;;;;;;;1.27;0.80;;;;;;;10.31;48.32;101047.31;10618414;27;20425;-73
2023/05/03 10:22:07;;;;;;;1.05;0.75;;;;;;;10.26;48.22;101053.63;10628019;27;20051;-74
2023/05/03 10:27:10;;;;;;;0.73;0.60;;;;;;;10.54;47.82;101065.22;10618106;27;20420;-76
2023/05/03 10:32:38;;;;;;;1.55;0.70;;;;;;;10.63;47.17;101077.31;10613941;27;20050;-76
2023/05/03 10:37:41;;;;;;;0.85;0.60;;;;;;;10.44;47.90;101082.47;10653949;27;20041;-76
2023/05/03 10:42:53;;;;;;;0.60;0.50;;;;;;;10.47;48.48;101097.56;10597554;27;20050;-77
2023/05/03 10:48:28;;;;;;;1.45;0.50;;;;;;;10.19;48.84;101107.84;10635788;27;20042;-77
2023/05/03 10:53:34;;;;;;;0.68;0.68;;;;;;;9.98;49.42;101108.84;10585702;27;20501;-76
2023/05/03 10:58:43;;;;;;;2.08;0.70;;;;;;;9.88;48.56;101126.03;10654545;27;20046;-76
2023/05/03 11:03:52;;;;;;;1.90;0.50;;;;;;;9.88;49.46;101138.91;10654038;27;20459;-76
2023/05/03 11:08:54;;;;;;;0.50;0.50;;;;;;;10.15;48.81;101156.09;10590803;27;20055;-76
2023/05/03 11:13:56;;;;;;;1.95;0.60;;;;;;;9.84;49.32;101177.00;10610243;28;20044;-78
2023/05/03 11:19:01;;;;;;;2.17;0.60;;;;;;;9.47;50.01;101187.94;10591875;28;20050;-77
2023/05/03 11:24:04;;;;;;;0.60;0.60;;;;;;;9.14;50.57;101175.28;10612029;27;20065;-78
2023/05/03 11:29:09;;;;;;;1.27;0.50;;;;;;;8.99;49.14;101183.34;10634051;27;20043;-77
2023/05/03 11:34:12;;;;;;;0.50;0.50;;;;;;;9.23;48.26;101184.72;10633927;27;20039;-75
2023/05/03 11:39:14;;;;;;;0.47;0.40;;;;;;;9.48;49.40;101178.63;10652250;27;20042;-77
2023/05/03 11:44:16;;;;;;;2.35;0.80;;;;;;;9.52;49.88;101190.72;10630192;27;20035;-78
2023/05/03 11:49:18;;;;;;;4.93;0.55;;;;;;;9.77;50.39;101195.59;10607067;28;20039;-77
2023/05/03 11:54:22;;;;;;;1.23;0.80;;;;;;;9.88;49.37;101188.25;10630264;27;20046;-76
2023/05/03 11:59:37;;;;;;;4.03;0.95;;;;;;;10.00;47.17;101190.81;10625260;27;20042;-77
2023/05/03 12:04:41;;;;;;;1.23;0.60;;;;;;;9.90;47.09;101191.59;10640917;27;20031;-76
2023/05/03 12:09:43;;;;;;;2.83;0.50;;;;;;;9.98;47.25;101199.31;10659948;27;20042;-76
2023/05/03 12:14:59;;;;;;;0.70;0.50;;;;;;;10.13;48.09;101190.38;10619721;27;20049;-76
2023/05/03 12:20:15;;;;;;;1.07;0.60;;;;;;;10.16;47.10;101195.31;10643060;27;20419;-76
2023/05/03 12:25:18;;;;;;;1.15;0.80;;;;;;;10.19;47.32;101201.09;10626270;27;20050;-76
2023/05/03 12:30:20;;;;;;;1.02;0.50;;;;;;;10.54;45.64;101200.50;10642581;27;20386;-76
2023/05/03 12:35:24;;;;;;;0.40;0.40;;;;;;;10.55;45.28;101199.41;10653903;27;20039;-76
2023/05/03 12:40:27;;;;;;;1.98;0.80;;;;;;;10.79;45.44;101198.97;10638212;27;20035;-77
2023/05/03 12:45:31;;;;;;;2.35;0.77;;;;;;;10.82;44.40;101193.75;10678322;27;20069;-77
2023/05/03 12:50:33;;;;;;;1.70;0.60;;;;;;;10.64;44.87;101202.47;10662614;27;20058;-76
2023/05/03 12:55:35;;;;;;;0.43;0.43;;;;;;;10.47;44.75;101212.81;10649880;27;20113;-74
2023/05/03 13:00:37;;;;;;;3.13;1.05;;;;;;;10.57;45.63;101218.34;10618665;27;20261;-73
2023/05/03 13:05:39;;;;;;;3.72;0.95;;;;;;;10.72;44.99;101228.56;10665323;27;20047;-73
2023/05/03 13:10:42;;;;;;;2.40;0.52;;;;;;;10.43;44.93;101229.00;10643954;27;20039;-76
2023/05/03 13:15:45;;;;;;;0.50;0.50;;;;;;;10.44;45.01;101244.34;10655877;27;20062;-76
2023/05/03 13:20:48;;;;;;;1.08;0.60;;;;;;;10.50;45.92;101259.75;10657951;27;20141;-76
2023/05/03 13:25:53;;;;;;;1.08;0.47;;;;;;;10.37;47.09;101271.19;10663385;27;20516;-77
2023/05/03 13:30:56;;;;;;;0.50;0.50;;;;;;;9.85;48.67;101280.06;10623653;27;20039;-76
2023/05/03 13:35:58;;;;;;;1.27;0.45;;;;;;;9.55;48.75;101279.81;10583099;28;20040;-75
2023/05/03 13:41:05;;;;;;;1.15;0.60;;;;;;;9.53;49.21;101279.22;10595906;27;20039;-75
2023/05/03 13:46:07;;;;;;;3.03;0.70;;;;;;;9.64;48.21;101270.00;10576610;27;20032;-77
2023/05/03 13:51:11;;;;;;;0.50;0.50;;;;;;;10.03;47.56;101278.84;10573594;27;20043;-75
2023/05/03 13:56:13;;;;;;;0.73;0.60;;;;;;;10.36;46.48;101275.00;10570545;27;20036;-77
2023/05/03 14:01:16;;;;;;;1.13;0.70;;;;;;;10.65;45.38;101274.66;10602955;27;20051;-74
2023/05/03 14:06:19;;;;;;;5.68;0.60;;;;;;;10.62;45.19;101286.16;10610268;27;20520;-76
2023/05/03 14:11:23;;;;;;;1.00;0.52;;;;;;;10.13;45.50;101295.41;10580897;27;20493;-76
2023/05/03 14:16:26;;;;;;;0.80;0.70;;;;;;;9.58;48.28;101306.69;10603256;27;20047;-76
2023/05/03 14:21:28;;;;;;;1.70;0.80;;;;;;;9.53;49.76;101312.91;10575197;27;20044;-74
2023/05/03 14:26:32;;;;;;;0.98;0.80;;;;;;;9.54;50.76;101311.00;10570523;27;20034;-75
2023/05/03 14:31:35;;;;;;;2.03;0.70;;;;;;;9.54;48.83;101321.97;10646700;27;20050;-77
2023/05/03 14:36:42;;;;;;;0.80;0.40;;;;;;;9.24;48.52;101319.72;10603703;28;20051;-78
2023/05/03 14:41:44;;;;;;;2.67;0.60;;;;;;;9.44;49.64;101305.44;10652477;27;20469;-76
2023/05/03 14:46:46;;;;;;;2.30;0.80;;;;;;;9.70;49.13;101311.97;10627609;27;20035;-78
2023/05/03 14:51:49;;;;;;;2.80;0.82;;;;;;;10.08;48.84;101316.47;10641582;27;20053;-77
2023/05/03 14:56:51;;;;;;;1.42;0.80;;;;;;;10.16;47.96;101310.50;10648787;27;20031;-76
2023/05/03 15:01:53;;;;;;;1.15;0.70;;;;;;;10.05;48.15;101326.03;10656829;27;20412;-76
2023/05/03 15:07:02;;;;;;;1.17;0.88;;;;;;;10.10;47.76;101319.78;10633136;27;20034;-77
2023/05/03 15:12:04;;;;;;;0.80;0.55;;;;;;;9.78;48.04;101317.00;10653707;27;20046;-77
2023/05/03 15:17:07;;;;;;;1.50;0.80;;;;;;;9.46;48.71;101327.91;10657946;27;20048;-73
2023/05/03 15:22:09;;;;;;;1.95;0.80;;;;;;;9.18;49.00;101326.19;10628098;27;20050;-72
2023/05/03 15:27:11;;;;;;;1.15;0.60;;;;;;;9.01;49.54;101318.03;10617626;27;20050;-73
2023/05/03 15:32:13;;;;;;;1.50;0.82;;;;;;;8.98;49.99;101326.78;10585641;27;20050;-73
2023/05/03 15:37:16;;;;;;;1.23;0.70;;;;;;;8.94;49.76;101325.63;10588394;28;20035;-73
2023/05/03 15:42:18;;;;;;;1.33;0.70;;;;;;;8.94;49.41;101325.63;10596310;28;20040;-73
2023/05/03 15:47:21;;;;;;;1.30;0.80;;;;;;;9.02;48.60;101326.03;10602534;28;20039;-73
2023/05/03 15:52:23;;;;;;;1.38;0.60;;;;;;;8.83;47.77;101321.91;10591723;28;20055;-73
2023/05/03 15:57:26;;;;;;;0.70;0.50;;;;;;;8.72;48.06;101326.44;10577142;28;20658;-75
2023/05/03 16:02:28;;;;;;;3.08;0.77;;;;;;;8.80;47.79;101325.16;10556716;28;20035;-73
2023/05/03 16:07:30;;;;;;;1.90;0.75;;;;;;;8.60;47.59;101331.19;10579586;28;20040;-76
2023/05/03 16:12:33;;;;;;;1.10;0.55;;;;;;;8.49;48.85;101337.56;10585812;28;20035;-74
2023/05/03 16:17:35;;;;;;;1.55;0.65;;;;;;;8.50;48.37;101330.19;10576675;28;20036;-70
2023/05/03 16:22:37;;;;;;;0.50;0.40;;;;;;;8.62;48.79;101337.22;10603527;28;20051;-73
2023/05/03 16:27:45;;;;;;;2.78;0.70;;;;;;;8.73;47.66;101338.22;10604962;28;20641;-73
2023/05/03 16:32:47;;;;;;;0.75;0.60;;;;;;;8.65;47.84;101336.72;10647387;28;20032;-74
2023/05/03 16:37:50;;;;;;;2.03;1.00;;;;;;;8.47;48.41;101342.47;10649761;27;20055;-73
2023/05/03 16:42:54;;;;;;;1.45;1.00;;;;;;;8.29;50.58;101348.16;10599906;27;20043;-73
2023/05/03 16:47:57;;;;;;;1.65;0.95;;;;;;;8.24;50.64;101350.81;10653667;27;20038;-73
2023/05/03 16:52:59;;;;;;;0.77;0.70;;;;;;;8.16;51.80;101352.91;10639301;27;20043;-72
2023/05/03 16:58:01;;;;;;;1.75;0.70;;;;;;;8.05;52.65;101358.44;10635670;27;20040;-72
2023/05/03 17:03:04;;;;;;;1.98;1.00;;;;;;;8.06;53.29;101368.28;10624487;27;20472;-73
2023/05/03 17:08:09;;;;;;;3.25;0.80;;;;;;;7.99;53.15;101362.16;10640006;27;20043;-73
2023/05/03 17:13:11;;;;;;;2.05;0.73;;;;;;;7.92;53.58;101362.28;10658203;27;20043;-73
2023/05/03 17:18:14;;;;;;;1.73;0.75;;;;;;;7.90;54.03;101369.91;10657302;27;20035;-73
2023/05/03 17:23:16;;;;;;;0.85;0.73;;;;;;;7.99;54.11;101370.34;10654974;27;20040;-74
2023/05/03 17:28:20;;;;;;;1.73;0.75;;;;;;;7.95;53.79;101372.72;10655929;27;20051;-74
2023/05/03 17:33:24;;;;;;;1.45;1.00;;;;;;;7.98;54.98;101376.88;10637043;27;20027;-73
2023/05/03 17:38:27;;;;;;;2.90;1.10;;;;;;;8.23;54.45;101368.28;10652635;27;20543;-74
2023/05/03 17:43:35;;;;;;;3.30;1.33;;;;;;;8.14;54.80;101368.69;10637337;27;20035;-73
2023/05/03 17:48:39;;;;;;;2.33;1.08;;;;;;;8.07;55.03;101351.63;10643710;27;20047;-74
2023/05/03 17:53:41;;;;;;;2.22;1.08;;;;;;;7.89;56.02;101372.88;10657687;27;20038;-74
2023/05/03 17:58:49;;;;;;;4.93;1.83;;;;;;;7.89;55.52;101368.25;10643778;27;20050;-72
2023/05/03 18:03:51;;;;;;;4.20;2.17;;;;;;;7.83;56.27;101363.78;10650083;27;20035;-75
2023/05/03 18:08:53;;;;;;;6.55;1.95;;;;;;;7.70;56.24;101364.06;10657340;27;20043;-74
2023/05/03 18:13:55;;;;;;;4.65;2.13;;;;;;;7.62;56.66;101368.00;10640298;27;20041;-74
2023/05/03 18:18:58;;;;;;;7.00;1.55;;;;;;;7.72;56.68;101375.56;10644383;27;20055;-76
2023/05/03 18:24:00;;;;;;;4.60;1.50;;;;;;;7.84;56.99;101373.63;10653002;27;20139;-72
2023/05/03 18:29:02;;;;;;;3.05;1.63;;;;;;;7.77;58.04;101368.28;10610798;27;20047;-75
2023/05/03 18:34:05;;;;;;;2.55;1.20;;;;;;;7.65;59.01;101367.53;10585674;27;20035;-75
2023/05/03 18:39:07;;;;;;;4.70;1.08;;;;;;;7.33;60.44;101372.63;10609493;27;20677;-76
2023/05/03 18:44:09;;;;;;;2.65;0.90;;;;;;;7.05;61.91;101375.28;10621184;27;20062;-75
2023/05/03 18:49:12;;;;;;;3.45;1.42;;;;;;;6.91;61.95;101367.34;10607070;27;20056;-77
2023/05/03 18:54:14;;;;;;;3.83;1.60;;;;;;;7.10;62.29;101369.94;10615334;27;20046;-75
2023/05/03 18:59:17;;;;;;;4.13;1.83;;;;;;;7.04;62.18;101373.63;10617312;27;20545;-74
2023/05/03 19:04:19;;;;;;;5.40;2.17;;;;;;;7.07;60.80;101379.44;10613704;27;20058;-74
2023/05/03 19:09:21;;;;;;;5.18;1.23;;;;;;;7.21;60.26;101378.13;10616949;27;20042;-74
2023/05/03 19:14:24;;;;;;;3.65;1.40;;;;;;;7.10;59.55;101380.84;10609927;27;20056;-75
2023/05/03 19:19:26;;;;;;;3.47;1.23;;;;;;;6.97;59.63;101381.13;10615494;27;20043;-74
2023/05/03 19:24:29;;;;;;;1.50;0.95;;;;;;;6.97;59.23;101376.50;10600939;27;20532;-75
2023/05/03 19:29:32;;;;;;;0.70;0.70;;;;;;;6.83;60.14;101386.00;10642125;27;20042;-76
2023/05/03 19:34:35;;;;;;;0.70;0.70;;;;;;;6.84;59.83;101382.22;10634867;27;20413;-74
2023/05/03 19:39:37;;;;;;;1.48;0.73;;;;;;;7.08;58.95;101383.81;10646480;27;20035;-73
2023/05/03 19:44:39;;;;;;;2.15;0.80;;;;;;;7.20;57.85;101375.63;10632720;27;20074;-75
2023/05/03 19:49:42;;;;;;;1.83;0.90;;;;;;;7.10;57.54;101369.94;10613668;28;20547;-77
2023/05/03 19:54:44;;;;;;;0.80;0.80;;;;;;;7.14;57.93;101371.13;10642643;28;20039;-78
2023/05/03 19:59:47;;;;;;;1.13;0.68;;;;;;;6.97;57.60;101375.69;10628724;27;20045;-73
2023/05/03 20:04:49;;;;;;;0.85;0.60;;;;;;;7.00;57.11;101377.91;10632708;27;20327;-74
2023/05/03 20:09:51;;;;;;;0.68;0.60;;;;;;;6.90;56.68;101373.06;10623415;27;20044;-74
2023/05/03 20:14:53;;;;;;;2.13;0.65;;;;;;;6.76;57.58;101375.19;10646505;27;20027;-74
2023/05/03 20:20:05;;;;;;;1.90;1.05;;;;;;;6.74;57.18;101371.88;10643821;27;20035;-73
2023/05/03 20:25:08;;;;;;;3.03;0.80;;;;;;;6.83;57.29;101362.28;10617769;27;20039;-74
2023/05/03 20:30:10;;;;;;;2.60;1.23;;;;;;;6.71;57.95;101369.63;10615194;27;20046;-74
2023/05/03 20:35:12;;;;;;;1.40;0.68;;;;;;;6.76;58.08;101360.72;10598156;27;20036;-73
2023/05/03 20:40:15;;;;;;;3.53;1.33;;;;;;;6.73;57.81;101363.94;10576313;27;20043;-72
2023/05/03 20:45:18;;;;;;;2.00;0.85;;;;;;;6.67;58.22;101365.72;10569017;28;20047;-73
2023/05/03 20:50:25;;;;;;;4.43;1.40;;;;;;;6.55;58.62;101357.53;10564718;28;20044;-72
2023/05/03 20:55:27;;;;;;;3.37;0.90;;;;;;;6.55;59.08;101343.06;10599276;27;20035;-73
2023/05/03 21:00:29;;;;;;;2.45;0.80;;;;;;;6.31;59.95;101356.69;10577703;27;20481;-74
2023/05/03 21:05:31;;;;;;;1.98;0.80;;;;;;;6.25;59.28;101352.19;10599034;27;20500;-74
2023/05/03 21:10:34;;;;;;;0.70;0.55;;;;;;;6.17;59.67;101359.88;10592142;27;20047;-75
2023/05/03 21:15:36;;;;;;;1.52;0.70;;;;;;;6.24;60.10;101355.13;10578115;28;20046;-73
2023/05/03 21:20:38;;;;;;;1.40;0.50;;;;;;;6.27;60.57;101363.69;10573010;28;20036;-73
2023/05/03 21:25:40;;;;;;;3.03;0.90;;;;;;;6.60;59.75;101362.31;10577968;27;20043;-73
2023/05/03 21:30:43;;;;;;;0.90;0.80;;;;;;;6.30;60.26;101368.66;10637001;27;20492;-72
2023/05/03 21:35:45;;;;;;;1.50;0.85;;;;;;;6.43;60.16;101366.78;10651231;27;20036;-74
2023/05/03 21:40:47;;;;;;;2.58;1.30;;;;;;;6.25;61.06;101371.28;10652987;27;20183;-73
2023/05/03 21:45:49;;;;;;;1.33;0.82;;;;;;;6.13;60.75;101367.69;10638958;27;20039;-75
2023/05/03 21:50:51;;;;;;;0.98;0.60;;;;;;;6.12;61.17;101360.59;10657201;27;20035;-74
2023/05/03 21:55:53;;;;;;;1.80;0.82;;;;;;;5.96;61.65;101362.09;10637882;27;20031;-73
2023/05/03 22:00:56;;;;;;;1.10;0.70;;;;;;;5.95;62.52;101354.16;10650187;27;20046;-74
2023/05/03 22:05:58;;;;;;;1.13;0.80;;;;;;;6.12;62.19;101351.59;10646599;27;20042;-73
2023/05/03 22:11:03;;;;;;;1.65;0.70;;;;;;;6.15;62.67;101351.94;10656012;27;20043;-74
2023/05/03 22:16:06;;;;;;;1.35;0.70;;;;;;;5.93;63.22;101350.84;10638009;27;20051;-74
2023/05/03 22:21:09;;;;;;;0.88;0.70;;;;;;;5.97;63.63;101346.56;10637544;27;20039;-74
2023/05/03 22:26:11;;;;;;;1.08;0.68;;;;;;;6.05;63.90;101341.59;10656682;27;20058;-74
2023/05/03 22:31:13;;;;;;;0.75;0.60;;;;;;;5.90;64.89;101340.38;10655239;27;20050;-73
2023/05/03 22:36:15;;;;;;;1.17;0.70;;;;;;;5.90;64.46;101345.81;10636155;27;20039;-73
2023/05/03 22:41:18;;;;;;;2.40;0.77;;;;;;;5.85;65.36;101340.22;10655080;27;20651;-73
2023/05/03 22:46:20;;;;;;;3.83;0.90;;;;;;;5.84;65.53;101338.56;10654823;27;20524;-72
2023/05/03 22:51:22;;;;;;;1.45;0.77;;;;;;;5.73;65.62;101338.31;10654590;27;20519;-72
2023/05/03 22:56:24;;;;;;;1.10;0.60;;;;;;;5.37;66.93;101341.94;10652089;27;20035;-73
2023/05/03 23:01:27;;;;;;;0.50;0.47;;;;;;;5.38;67.59;101329.16;10614892;27;20050;-73
2023/05/03 23:06:29;;;;;;;1.30;0.60;;;;;;;5.55;67.28;101330.16;10635712;27;20043;-73
2023/05/03 23:11:31;;;;;;;1.05;0.60;;;;;;;5.48;67.53;101331.34;10653253;27;20039;-73
2023/05/03 23:16:33;;;;;;;1.85;0.93;;;;;;;5.34;67.77;101327.97;10611244;28;20078;-72
2023/05/03 23:21:36;;;;;;;0.80;0.50;;;;;;;5.40;67.49;101337.94;10592416;28;20039;-73
2023/05/03 23:26:39;;;;;;;2.42;0.57;;;;;;;5.47;67.33;101327.78;10592561;28;20051;-73